createdAt,value
2022-10-10T00:01:29.053Z,13.20
2022-10-10T00:11:29.112Z,14.80
2022-10-10T00:21:29.439Z,13.90
2022-10-10T00:31:29.465Z,14.90
2022-10-10T00:41:29.793Z,15.00
2022-10-10T00:51:29.813Z,14.40
2022-10-10T01:01:30.140Z,16.80
2022-10-10T01:11:30.171Z,13.80
2022-10-10T01:21:30.495Z,13.10
2022-10-10T01:31:30.509Z,13.30
2022-10-10T01:41:30.845Z,13.40
2022-10-10T01:51:30.862Z,15.60
2022-10-10T02:01:31.195Z,19.20
2022-10-10T02:11:31.214Z,15.00
2022-10-10T02:21:31.540Z,21.00
2022-10-10T02:31:31.576Z,17.80
2022-10-10T02:41:31.880Z,21.70
2022-10-10T02:51:31.920Z,19.80
2022-10-10T03:01:32.257Z,18.90
2022-10-10T03:11:32.288Z,19.90
2022-10-10T03:21:32.589Z,19.40
2022-10-10T03:31:32.613Z,17.60
2022-10-10T03:41:32.942Z,21.60
2022-10-10T03:51:32.980Z,19.80
2022-10-10T04:01:33.328Z,21.80
2022-10-10T04:11:33.361Z,25.00
2022-10-10T04:21:33.638Z,25.90
2022-10-10T04:31:33.693Z,37.10
2022-10-10T04:41:33.987Z,32.40
2022-10-10T04:51:34.006Z,28.90
2022-10-10T05:01:34.410Z,26.80
2022-10-10T05:11:34.444Z,26.60
2022-10-10T05:21:34.792Z,25.30
2022-10-10T05:31:34.813Z,20.80
2022-10-10T05:41:35.137Z,20.90
2022-10-10T05:51:35.159Z,19.30
2022-10-10T06:01:35.488Z,18.70
2022-10-10T06:11:35.506Z,14.60
2022-10-10T06:21:35.844Z,13.70
2022-10-10T06:31:35.865Z,14.80
2022-10-10T06:41:36.195Z,14.70
2022-10-10T06:51:36.270Z,13.20
2022-10-10T07:01:36.601Z,10.50
2022-10-10T07:11:36.638Z,12.20
2022-10-10T07:21:36.902Z,12.60
2022-10-10T07:31:37.120Z,11.50
2022-10-10T07:41:37.446Z,20.00
2022-10-10T07:51:37.479Z,14.90
2022-10-10T08:01:37.823Z,11.70
2022-10-10T08:11:37.955Z,13.40
2022-10-10T08:21:38.042Z,13.00
2022-10-10T08:31:38.092Z,10.90
2022-10-10T08:41:38.390Z,7.90
2022-10-10T08:51:38.420Z,9.90
2022-10-10T09:02:18.150Z,8.20
2022-10-10T09:11:39.951Z,5.90
2022-10-10T09:21:38.979Z,5.20
2022-10-10T09:31:39.285Z,5.30
2022-10-10T09:41:39.317Z,8.50
2022-10-10T09:51:39.621Z,10.00
2022-10-10T10:01:39.683Z,9.30
2022-10-10T10:11:39.764Z,12.50
2022-10-10T10:21:40.020Z,9.40
2022-10-10T10:31:44.577Z,7.70
2022-10-10T10:41:40.387Z,8.50
2022-10-10T10:51:40.771Z,7.90
2022-10-10T11:01:58.077Z,7.80
2022-10-10T11:11:41.906Z,6.70
2022-10-10T11:21:41.196Z,7.40
2022-10-10T11:31:41.277Z,6.80
2022-10-10T11:41:41.360Z,6.60
2022-10-10T11:51:41.387Z,6.60
2022-10-10T12:01:41.688Z,5.20
2022-10-10T12:11:41.731Z,4.70
2022-10-10T12:21:42.040Z,5.00
2022-10-10T12:31:42.073Z,5.50
2022-10-10T12:41:47.016Z,6.50
2022-10-10T12:51:43.461Z,6.40
2022-10-10T13:01:42.736Z,6.00
2022-10-10T13:11:42.784Z,6.20
2022-10-10T13:21:43.022Z,5.80
2022-10-10T13:31:43.243Z,5.60
2022-10-10T13:41:43.541Z,5.80
2022-10-10T13:51:43.576Z,5.30
2022-10-10T14:01:43.963Z,6.00
2022-10-10T14:11:44.001Z,5.90
2022-10-10T14:21:44.335Z,5.20
2022-10-10T14:31:44.375Z,4.90
2022-10-10T14:41:44.683Z,4.00
2022-10-10T14:51:44.715Z,4.10
2022-10-10T15:01:45.036Z,4.10
2022-10-10T15:11:45.062Z,3.80
2022-10-10T15:21:45.384Z,4.80
2022-10-10T15:31:45.419Z,4.70
2022-10-10T15:41:45.855Z,3.70
2022-10-10T15:51:45.715Z,3.60
2022-10-10T16:01:45.981Z,4.60
2022-10-10T16:11:46.208Z,5.10
2022-10-10T16:21:46.539Z,5.70
2022-10-10T16:31:46.564Z,5.40
2022-10-10T16:41:48.473Z,5.40
2022-10-10T16:51:46.919Z,6.40
2022-10-10T17:01:49.285Z,8.10
2022-10-10T17:11:51.162Z,7.90
2022-10-10T17:21:47.454Z,8.30
2022-10-10T17:31:47.768Z,8.50
2022-10-10T17:41:47.862Z,10.70
2022-10-10T17:51:47.914Z,8.90
2022-10-10T18:01:48.149Z,10.00
2022-10-10T18:11:48.601Z,7.90
2022-10-10T18:21:48.631Z,8.80
2022-10-10T18:31:48.812Z,8.70
2022-10-10T18:41:48.841Z,9.30
2022-10-10T18:51:49.388Z,8.30
2022-10-10T19:01:49.337Z,8.10
2022-10-10T19:11:49.620Z,7.20
2022-10-10T19:21:49.527Z,8.70
2022-10-10T19:31:49.866Z,8.20
2022-10-10T19:41:49.948Z,7.20
2022-10-10T19:51:50.034Z,7.80
2022-10-10T20:01:50.177Z,7.40
2022-10-10T20:11:50.355Z,4.80
2022-10-10T20:21:50.380Z,5.00
2022-10-10T20:31:50.701Z,4.30
2022-10-10T20:41:50.721Z,4.50
2022-10-10T20:51:51.059Z,3.90
2022-10-10T21:01:51.171Z,3.30
2022-10-10T21:11:51.307Z,3.10
2022-10-10T21:21:51.329Z,3.00
2022-10-10T21:31:51.649Z,2.80
2022-10-10T21:41:51.679Z,3.40
2022-10-10T21:51:51.998Z,3.70
2022-10-10T22:01:52.021Z,3.60
2022-10-10T22:11:52.345Z,3.70
2022-10-10T22:21:52.366Z,3.30
2022-10-10T22:31:52.699Z,2.80
2022-10-10T22:41:52.726Z,3.70
2022-10-10T22:51:53.048Z,3.30
2022-10-10T23:01:53.061Z,3.60
2022-10-10T23:11:53.390Z,3.70
2022-10-10T23:21:53.439Z,4.20
2022-10-10T23:31:53.747Z,4.00
2022-10-10T23:41:53.798Z,4.10
2022-10-10T23:51:54.101Z,4.20
